Time;durP1;ratioP1;P1;durP2;ratioP2;P2;SDS_P1;SDS_P2;PMS_P1;PMS_P2;Temp;Humidity;BMP_temperature;BMP_pressure;BME280_temperature;BME280_humidity;BME280_pressure;Samples;Min_cycle;Max_cycle;Signal;HPM_P1;HPM_P2
2021/01/16 00:01:04;;;;;;;18.13;11.23;;;;;;;-0.03;70.64;100540.72;5031074;28;20030;-69
2021/01/16 00:03:29;;;;;;;16.23;10.50;;;;;;;0.05;70.37;100532.84;5030725;28;20455;-69
2021/01/16 00:05:56;;;;;;;19.67;11.60;;;;;;;0.17;70.65;100543.97;5031242;28;20076;-71
2021/01/16 00:08:42;;;;;;;18.53;10.90;;;;;;;0.24;69.69;100538.63;5031020;28;20021;-69
2021/01/16 00:11:08;;;;;;;24.73;14.13;;;;;;;0.29;69.79;100534.78;4988983;28;20045;-69
2021/01/16 00:13:34;;;;;;;21.53;12.00;;;;;;;0.38;69.30;100534.63;4989246;28;20076;-68
2021/01/16 00:16:04;;;;;;;20.43;11.53;;;;;;;0.40;69.34;100520.41;4989258;28;20532;-69
2021/01/16 00:18:30;;;;;;;27.77;14.68;;;;;;;0.42;68.83;100521.41;4991205;28;20118;-68
2021/01/16 00:20:58;;;;;;;22.80;12.53;;;;;;;0.54;68.93;100528.22;4993043;28;20145;-69
2021/01/16 00:23:29;;;;;;;23.17;12.87;;;;;;;0.47;68.67;100525.22;4992654;28;20034;-69
2021/01/16 00:25:55;;;;;;;20.83;13.20;;;;;;;0.50;68.44;100523.66;4993041;28;20253;-67
2021/01/16 00:28:23;;;;;;;20.77;12.30;;;;;;;0.32;68.46;100513.84;4992984;28;20034;-68
2021/01/16 00:30:49;;;;;;;22.63;13.77;;;;;;;0.12;69.72;100525.84;4992757;28;20105;-65
2021/01/16 00:33:22;;;;;;;18.70;12.97;;;;;;;0.12;69.92;100530.91;4992921;28;20389;-68
2021/01/16 00:35:49;;;;;;;24.50;13.17;;;;;;;0.09;69.36;100524.72;4944250;28;20133;-68
2021/01/16 00:38:15;;;;;;;19.17;11.87;;;;;;;0.02;69.48;100519.91;4992465;28;20038;-68
2021/01/16 00:40:41;;;;;;;19.00;11.93;;;;;;;0.01;69.43;100528.28;4992839;28;20504;-68
2021/01/16 00:43:09;;;;;;;18.80;11.70;;;;;;;-0.19;69.74;100530.13;5030938;28;20033;-69
2021/01/16 00:45:36;;;;;;;19.27;12.27;;;;;;;-0.30;70.63;100523.28;5034170;28;20038;-69
2021/01/16 00:48:11;;;;;;;21.70;12.60;;;;;;;-0.66;69.88;100483.25;5034439;28;20029;-69
2021/01/16 00:50:37;;;;;;;19.90;11.50;;;;;;;-0.62;70.20;100502.16;5033908;28;20113;-68
2021/01/16 00:53:03;;;;;;;21.20;12.33;;;;;;;-0.62;70.26;100529.13;5034289;28;20104;-69
2021/01/16 00:55:28;;;;;;;22.30;12.67;;;;;;;-0.76;71.16;100528.00;5034055;28;20072;-66
2021/01/16 00:57:54;;;;;;;20.87;12.93;;;;;;;-0.88;71.59;100535.50;5033760;28;20022;-66
2021/01/16 01:00:22;;;;;;;24.47;15.17;;;;;;;-1.00;72.21;100526.09;5034087;28;20025;-67
2021/01/16 01:02:48;;;;;;;26.73;16.10;;;;;;;-1.04;72.99;100525.72;5034142;28;20399;-68
2021/01/16 01:05:22;;;;;;;27.13;16.50;;;;;;;-1.00;73.22;100520.13;5033441;28;20089;-68
2021/01/16 01:07:49;;;;;;;25.33;16.40;;;;;;;-0.92;72.93;100516.59;5034081;28;20069;-68
2021/01/16 01:10:18;;;;;;;24.23;16.27;;;;;;;-0.88;72.61;100521.16;5033782;28;20487;-68
2021/01/16 01:12:43;;;;;;;25.25;15.98;;;;;;;-0.92;72.71;100511.53;5033765;28;20053;-65
2021/01/16 01:15:09;;;;;;;24.87;16.90;;;;;;;-0.91;73.09;100509.88;5033651;28;20480;-65
2021/01/16 01:17:35;;;;;;;28.47;17.37;;;;;;;-0.87;72.93;100517.88;5031981;28;20029;-67
2021/01/16 01:20:03;;;;;;;23.13;16.30;;;;;;;-0.87;73.07;100512.81;5033554;28;20045;-68
2021/01/16 01:22:33;;;;;;;24.53;15.43;;;;;;;-0.86;73.30;100512.03;5033360;28;20021;-69
2021/01/16 01:24:59;;;;;;;21.30;14.50;;;;;;;-0.91;73.01;100509.88;5033640;28;20105;-67
2021/01/16 01:27:25;;;;;;;21.80;13.87;;;;;;;-0.91;72.95;100509.88;5033538;28;20100;-65
2021/01/16 01:29:50;;;;;;;20.07;13.80;;;;;;;-1.21;73.09;100464.41;5033119;28;20496;-68
2021/01/16 01:32:16;;;;;;;22.33;14.67;;;;;;;-0.98;72.98;100509.38;5033304;28;20060;-67
2021/01/16 01:34:41;;;;;;;20.93;14.00;;;;;;;-1.05;72.96;100503.66;5033550;28;20057;-67
2021/01/16 01:37:07;;;;;;;22.93;14.27;;;;;;;-1.01;72.95;100505.69;5033387;28;20105;-67
2021/01/16 01:39:32;;;;;;;20.97;13.97;;;;;;;-0.94;73.29;100509.63;5033587;28;20475;-68
2021/01/16 01:41:58;;;;;;;19.73;13.80;;;;;;;-0.89;72.69;100529.53;5033107;28;20369;-67
2021/01/16 01:44:23;;;;;;;22.00;15.00;;;;;;;-1.21;72.75;100466.03;5033132;28;20056;-65
2021/01/16 01:46:49;;;;;;;20.90;14.30;;;;;;;-0.91;72.61;100526.00;5032816;28;20068;-66
2021/01/16 01:49:14;;;;;;;26.33;15.03;;;;;;;-0.93;73.30;100524.97;5033244;28;20060;-66
2021/01/16 01:51:42;;;;;;;20.10;14.30;;;;;;;-1.19;72.98;100472.97;5033075;28;20022;-67
2021/01/16 01:54:07;;;;;;;23.93;15.17;;;;;;;-0.87;73.00;100528.00;5032789;28;20419;-66
2021/01/16 01:56:37;;;;;;;22.87;13.90;;;;;;;-0.92;73.07;100514.06;5033038;28;20033;-66
2021/01/16 01:59:03;;;;;;;;;;;;;;;-1.04;73.38;100513.91;5033413;28;20041;-66
2021/01/16 02:01:30;;;;;;;20.80;13.30;;;;;;;-1.16;73.76;100506.19;5032660;28;19913;-66
2021/01/16 02:03:59;;;;;;;20.50;13.23;;;;;;;-1.15;74.29;100514.66;5032721;28;20033;-66
2021/01/16 02:06:24;;;;;;;18.77;13.00;;;;;;;-1.10;74.35;100512.53;5033084;28;20518;-66
2021/01/16 02:08:50;;;;;;;28.60;15.50;;;;;;;-1.28;74.12;100461.19;4981834;28;20026;-66
2021/01/16 02:11:16;;;;;;;19.83;13.07;;;;;;;-0.90;73.77;100510.00;5032560;28;20026;-63
2021/01/16 02:13:41;;;;;;;24.60;15.40;;;;;;;-0.80;74.02;100511.66;5014982;28;20030;-67
2021/01/16 02:16:20;;;;;;;20.83;13.67;;;;;;;-0.92;73.12;100471.00;5032433;28;20400;-67
2021/01/16 02:18:46;;;;;;;21.60;14.50;;;;;;;-0.86;73.17;100484.16;5032793;28;20037;-67
2021/01/16 02:21:17;;;;;;;19.50;13.40;;;;;;;-0.93;73.82;100473.41;5032123;28;20440;-62
2021/01/16 02:23:48;;;;;;;26.60;14.00;;;;;;;-0.79;73.62;100495.69;5032634;28;20048;-66
2021/01/16 02:26:17;;;;;;;23.23;13.67;;;;;;;-0.92;73.84;100465.00;5013636;28;20044;-66
2021/01/16 02:28:58;;;;;;;21.33;14.63;;;;;;;-0.87;73.13;100476.44;5032308;28;20057;-66
2021/01/16 02:31:31;;;;;;;24.00;14.83;;;;;;;-0.74;73.82;100496.06;5032394;28;20029;-62
2021/01/16 02:33:59;;;;;;;20.50;13.80;;;;;;;-0.71;73.31;100488.72;5030239;28;20040;-67
2021/01/16 02:37:14;;;;;;;22.90;14.73;;;;;;;-0.57;73.11;100487.31;5032587;28;20037;-67
2021/01/16 02:40:02;;;;;;;26.10;15.90;;;;;;;-0.52;72.84;100484.38;4941278;29;20031;-66
2021/01/16 02:42:37;;;;;;;56.57;26.20;;;;;;;-0.48;72.80;100466.91;4924484;29;20117;-68
2021/01/16 02:45:15;;;;;;;34.23;18.37;;;;;;;-0.33;71.78;100473.19;4938219;29;20035;-71
2021/01/16 02:48:07;;;;;;;20.10;13.17;;;;;;;-0.51;72.55;100473.47;4935854;29;20499;-64
2021/01/16 02:50:41;;;;;;;18.73;12.57;;;;;;;-0.49;72.39;100476.13;4951607;29;20035;-66
2021/01/16 02:53:09;;;;;;;21.10;14.17;;;;;;;-0.41;72.50;100474.22;4937982;28;20036;-66
2021/01/16 02:55:35;;;;;;;40.05;20.15;;;;;;;-0.57;72.94;100467.03;4951447;29;20037;-67
2021/01/16 02:58:01;;;;;;;18.43;12.87;;;;;;;-1.04;74.09;100470.84;4951484;29;20031;-67
2021/01/16 03:00:27;;;;;;;85.07;47.10;;;;;;;-1.16;74.98;100459.69;4951545;29;20067;-64
2021/01/16 03:02:52;;;;;;;26.40;16.87;;;;;;;-0.98;75.05;100467.94;4951794;29;20047;-64
2021/01/16 03:05:18;;;;;;;23.60;15.63;;;;;;;-0.83;74.36;100469.19;4949333;29;20031;-69
2021/01/16 03:07:44;;;;;;;21.17;14.20;;;;;;;-0.69;74.64;100470.31;4951389;29;20031;-69
2021/01/16 03:10:11;;;;;;;20.43;13.33;;;;;;;-0.59;74.04;100469.44;4989803;28;20046;-66
2021/01/16 03:12:38;;;;;;;21.13;14.73;;;;;;;-0.70;73.84;100470.19;5031807;28;20116;-68
2021/01/16 03:15:10;;;;;;;21.77;15.77;;;;;;;-0.85;74.85;100478.34;5031548;28;20021;-65
2021/01/16 03:17:51;;;;;;;21.93;14.20;;;;;;;-0.83;74.84;100474.25;5031678;28;20093;-64
2021/01/16 03:20:28;;;;;;;24.27;13.87;;;;;;;-0.70;73.84;100482.88;5027800;28;20067;-68
2021/01/16 03:22:56;;;;;;;20.73;13.93;;;;;;;-0.60;73.74;100472.72;5012183;28;20029;-69
2021/01/16 03:25:23;;;;;;;18.97;12.80;;;;;;;-0.54;73.40;100469.81;5002380;28;20407;-69
2021/01/16 03:27:50;;;;;;;17.07;12.57;;;;;;;-0.45;73.51;100462.94;5031994;28;20025;-69
2021/01/16 03:30:16;;;;;;;20.47;13.20;;;;;;;-0.39;72.62;100463.44;5031950;28;20021;-68
2021/01/16 03:32:42;;;;;;;19.20;12.87;;;;;;;-0.37;72.25;100461.91;5031518;28;20033;-68
2021/01/16 03:35:09;;;;;;;19.07;12.23;;;;;;;-0.25;72.70;100466.19;5031556;28;20480;-69
2021/01/16 03:37:35;;;;;;;18.40;12.17;;;;;;;-0.28;72.17;100455.81;5031881;28;20068;-68
2021/01/16 03:40:03;;;;;;;21.27;12.40;;;;;;;-0.15;71.92;100462.75;5031714;28;20461;-68
2021/01/16 03:42:29;;;;;;;18.87;12.07;;;;;;;-0.17;71.47;100455.88;5031824;28;20033;-68
2021/01/16 03:44:54;;;;;;;17.87;12.87;;;;;;;-0.12;71.21;100461.34;5031847;28;20080;-68
2021/01/16 03:47:20;;;;;;;18.87;12.13;;;;;;;-0.11;71.11;100458.03;4996725;28;20045;-67
2021/01/16 03:49:45;;;;;;;20.10;13.87;;;;;;;-0.18;71.28;100460.84;5031364;28;20033;-68
2021/01/16 03:52:34;;;;;;;23.47;14.00;;;;;;;-0.30;72.00;100467.47;5033567;28;20108;-68
2021/01/16 03:55:00;;;;;;;21.20;14.10;;;;;;;-0.37;72.20;100463.56;5035983;28;20065;-68
2021/01/16 03:57:26;;;;;;;25.07;13.47;;;;;;;-0.44;72.60;100456.22;5035918;28;20440;-68
2021/01/16 03:59:52;;;;;;;19.87;14.33;;;;;;;-0.58;72.70;100439.91;5036153;28;20034;-68
2021/01/16 04:02:18;;;;;;;23.20;15.17;;;;;;;-0.47;73.25;100466.09;5035326;28;20450;-68
2021/01/16 04:04:44;;;;;;;22.10;14.50;;;;;;;-0.42;72.95;100464.84;5035346;28;20083;-68
2021/01/16 04:07:10;;;;;;;23.30;14.90;;;;;;;-0.43;72.73;100458.00;5035422;28;20025;-68
2021/01/16 04:09:35;;;;;;;24.27;15.23;;;;;;;-0.46;72.75;100450.13;5035607;28;20372;-68
2021/01/16 04:12:01;;;;;;;21.23;14.63;;;;;;;-0.58;73.01;100425.56;5035557;28;20103;-68
2021/01/16 04:14:26;;;;;;;20.63;14.60;;;;;;;-0.42;72.91;100459.78;5035333;28;20450;-64
2021/01/16 04:16:52;;;;;;;25.63;14.70;;;;;;;-0.48;72.73;100449.16;5035326;28;20108;-68
2021/01/16 04:19:17;;;;;;;22.90;15.10;;;;;;;-0.54;72.78;100454.59;5035473;28;20388;-68
2021/01/16 04:21:44;;;;;;;21.97;14.80;;;;;;;-0.62;73.30;100463.22;5035220;28;20418;-68
2021/01/16 04:24:09;;;;;;;21.97;14.70;;;;;;;-0.75;73.32;100452.06;5034979;28;20491;-67
2021/01/16 04:26:35;;;;;;;26.30;16.00;;;;;;;-1.10;74.02;100424.72;5034939;28;20104;-68
2021/01/16 04:29:00;;;;;;;25.10;15.57;;;;;;;-0.88;74.35;100469.59;5035011;28;20026;-68
2021/01/16 04:31:26;;;;;;;25.10;15.50;;;;;;;-0.85;74.48;100452.09;5000099;28;20125;-72
2021/01/16 04:33:51;;;;;;;27.17;17.40;;;;;;;-0.87;74.33;100451.97;5035154;28;20028;-68
2021/01/16 04:36:16;;;;;;;26.10;15.40;;;;;;;-0.83;74.41;100455.66;5035191;28;20033;-68
2021/01/16 04:38:42;;;;;;;24.30;15.57;;;;;;;-0.82;74.27;100460.84;5035120;28;20472;-68
2021/01/16 04:41:09;;;;;;;28.33;17.63;;;;;;;-1.07;74.53;100421.56;5017280;28;20094;-68
2021/01/16 04:43:35;;;;;;;39.73;24.63;;;;;;;-0.87;74.55;100454.50;5034657;28;20052;-68
2021/01/16 04:46:06;;;;;;;32.53;20.93;;;;;;;-0.79;74.86;100449.19;5034491;28;20499;-68
2021/01/16 04:48:34;;;;;;;28.87;19.03;;;;;;;-0.80;74.80;100439.81;5034781;28;20036;-68
2021/01/16 04:51:01;;;;;;;27.87;17.40;;;;;;;-0.83;74.54;100423.56;5034608;28;20025;-68
2021/01/16 04:53:40;;;;;;;24.47;16.20;;;;;;;-0.87;74.94;100431.69;5034648;28;20499;-68
2021/01/16 04:56:08;;;;;;;23.70;12.40;;;;;;;-0.94;75.47;100438.69;5034587;28;20029;-68
2021/01/16 04:58:38;;;;;;;21.27;14.43;;;;;;;-0.86;75.40;100438.53;5034340;28;20080;-68
2021/01/16 05:01:05;;;;;;;23.87;15.40;;;;;;;-0.79;74.64;100434.84;5034358;28;20037;-68
2021/01/16 05:03:41;;;;;;;23.93;15.40;;;;;;;-0.88;74.28;100406.25;5033543;28;20048;-68
2021/01/16 05:06:12;;;;;;;27.77;16.03;;;;;;;-0.69;74.14;100446.63;5034582;28;20029;-68
2021/01/16 05:08:42;;;;;;;22.30;15.53;;;;;;;-0.68;74.35;100445.88;5034272;28;20026;-68
2021/01/16 05:11:24;;;;;;;29.87;19.37;;;;;;;-0.75;74.41;100452.06;5034388;28;20036;-68
2021/01/16 05:14:09;;;;;;;31.10;20.77;;;;;;;-0.78;74.72;100450.97;5034599;28;20071;-68
2021/01/16 05:16:44;;;;;;;26.03;16.93;;;;;;;-1.05;74.87;100402.31;5034471;28;20396;-68
2021/01/16 05:19:17;;;;;;;24.03;15.93;;;;;;;-1.17;74.57;100407.28;5034036;28;20057;-68
2021/01/16 05:21:43;;;;;;;28.23;19.10;;;;;;;-0.99;75.29;100450.97;5034228;28;20503;-68
2021/01/16 05:24:14;;;;;;;30.00;18.13;;;;;;;-0.95;75.32;100463.13;5034233;28;20045;-68
2021/01/16 05:27:09;;;;;;;23.93;16.67;;;;;;;-0.79;74.59;100461.88;5034205;28;20108;-68
2021/01/16 05:29:36;;;;;;;23.40;16.07;;;;;;;-0.77;74.22;100446.00;5033513;28;20435;-68
2021/01/16 05:32:03;;;;;;;23.93;15.17;;;;;;;-0.67;74.07;100442.59;5033688;28;20593;-68
2021/01/16 05:34:31;;;;;;;26.77;16.00;;;;;;;-0.59;74.02;100443.19;5033934;28;20025;-68
2021/01/16 05:36:57;;;;;;;25.03;16.00;;;;;;;-0.83;73.93;100392.28;5033920;28;20090;-68
2021/01/16 05:39:27;;;;;;;27.80;18.53;;;;;;;-0.58;74.17;100434.84;5016081;28;20098;-68
2021/01/16 05:42:01;;;;;;;25.75;17.08;;;;;;;-0.86;74.18;100392.03;4999014;28;20037;-68
2021/01/16 05:44:27;;;;;;;68.60;34.30;;;;;;;-0.68;74.21;100438.28;5033527;28;20040;-68
2021/01/16 05:46:54;;;;;;;55.87;29.00;;;;;;;-0.80;74.20;100407.72;5033767;28;20025;-68
2021/01/16 05:49:21;;;;;;;29.40;18.67;;;;;;;-0.57;73.95;100432.41;5033766;28;20030;-68
2021/01/16 05:51:48;;;;;;;27.60;18.10;;;;;;;-0.64;74.02;100432.66;5033676;28;20040;-68
2021/01/16 05:54:14;;;;;;;25.87;16.97;;;;;;;-0.64;74.10;100422.53;5033564;28;20205;-68
2021/01/16 05:56:41;;;;;;;71.77;39.23;;;;;;;-0.60;74.10;100426.22;5033589;28;20036;-68
2021/01/16 05:59:19;;;;;;;31.67;20.37;;;;;;;-0.53;73.35;100425.94;5033541;28;20029;-68
2021/01/16 06:01:46;;;;;;;29.43;19.10;;;;;;;-0.49;73.30;100427.94;5033427;28;20108;-68
2021/01/16 06:04:19;;;;;;;32.10;18.40;;;;;;;-0.52;73.14;100420.97;5032354;28;20040;-68
2021/01/16 06:06:45;;;;;;;28.33;18.33;;;;;;;-0.46;72.86;100417.16;5033495;28;20095;-68
2021/01/16 06:09:19;;;;;;;30.10;17.67;;;;;;;-0.56;73.75;100425.69;5032684;28;20468;-68
2021/01/16 06:11:49;;;;;;;41.47;25.93;;;;;;;-0.70;73.83;100416.97;5032898;28;20026;-68
2021/01/16 06:14:16;;;;;;;36.93;21.47;;;;;;;-0.58;74.07;100417.09;5033093;28;20407;-68
2021/01/16 06:16:58;;;;;;;32.03;20.57;;;;;;;-0.48;73.71;100424.66;5031795;28;20032;-68
2021/01/16 06:19:27;;;;;;;25.80;16.97;;;;;;;-0.41;73.05;100418.41;5032602;28;20125;-65
2021/01/16 06:21:53;;;;;;;26.67;17.53;;;;;;;-0.39;73.29;100415.22;5032370;28;20053;-68
2021/01/16 06:24:24;;;;;;;29.70;18.87;;;;;;;-0.78;74.54;100418.88;5032531;28;20040;-67
2021/01/16 06:27:00;;;;;;;38.77;22.13;;;;;;;-1.05;75.82;100426.00;5014295;28;20041;-67
2021/01/16 06:29:36;;;;;;;32.73;20.43;;;;;;;-1.13;76.08;100419.44;5031501;28;20033;-67
2021/01/16 06:32:10;;;;;;;36.20;22.20;;;;;;;-0.99;76.75;100418.91;5032036;28;20033;-67
2021/01/16 06:34:38;;;;;;;32.90;19.60;;;;;;;-0.86;76.08;100427.50;5030773;28;20069;-68
2021/01/16 06:37:16;;;;;;;29.93;19.13;;;;;;;-0.83;76.24;100415.97;5023858;28;20061;-67
2021/01/16 06:39:49;;;;;;;30.90;18.63;;;;;;;-0.73;75.86;100419.28;5020612;28;20468;-68
2021/01/16 06:42:28;;;;;;;38.67;21.60;;;;;;;-0.66;75.25;100431.69;5021468;28;20031;-68
2021/01/16 06:45:08;;;;;;;33.17;20.80;;;;;;;-0.76;75.73;100424.06;5021993;28;20021;-67
2021/01/16 06:47:35;;;;;;;32.03;20.23;;;;;;;-0.83;76.58;100427.78;5021758;28;20037;-68
2021/01/16 06:50:04;;;;;;;38.97;26.03;;;;;;;-0.77;76.73;100419.75;4990182;28;20045;-68
2021/01/16 06:52:38;;;;;;;41.75;26.08;;;;;;;-0.72;75.98;100408.38;5004081;28;20108;-68
2021/01/16 06:55:06;;;;;;;49.13;27.87;;;;;;;-0.59;75.97;100416.19;5022418;28;20029;-66
2021/01/16 06:57:33;;;;;;;46.57;28.13;;;;;;;-0.51;75.82;100417.69;5021697;28;20038;-68
2021/01/16 07:00:09;;;;;;;50.73;33.13;;;;;;;-0.42;75.52;100431.88;5031803;28;20396;-66
2021/01/16 07:02:36;;;;;;;74.73;46.13;;;;;;;-0.32;75.06;100429.31;5031524;28;20036;-68
2021/01/16 07:05:21;;;;;;;39.33;25.63;;;;;;;-0.12;77.92;100448.66;5031642;28;20064;-68
2021/01/16 07:07:48;;;;;;;39.87;25.60;;;;;;;-0.10;75.36;100446.22;5031577;28;20033;-68
2021/01/16 07:10:17;;;;;;;33.43;21.37;;;;;;;-0.15;75.17;100450.94;5030901;28;20029;-69
2021/01/16 07:12:54;;;;;;;28.53;17.33;;;;;;;-0.40;75.63;100451.53;5030960;28;20029;-69
2021/01/16 07:15:21;;;;;;;25.47;17.17;;;;;;;-0.65;76.53;100438.50;5030385;28;20108;-68
2021/01/16 07:17:48;;;;;;;30.63;18.57;;;;;;;-0.48;76.68;100447.47;5015131;28;20041;-68
2021/01/16 07:20:15;;;;;;;29.23;19.00;;;;;;;-0.45;76.44;100452.78;5011314;28;20527;-68
2021/01/16 07:22:43;;;;;;;27.07;19.40;;;;;;;-0.41;76.18;100449.75;5011487;28;20034;-68
2021/01/16 07:25:14;;;;;;;26.97;18.17;;;;;;;-0.27;75.62;100458.47;5011917;28;20034;-68
2021/01/16 07:27:40;;;;;;;29.03;18.70;;;;;;;-0.34;75.22;100431.72;5011522;28;20128;-68
2021/01/16 07:30:11;;;;;;;27.50;17.73;;;;;;;-0.28;75.00;100446.53;5011740;28;20030;-68
2021/01/16 07:32:47;;;;;;;34.87;25.00;;;;;;;-0.23;75.37;100441.84;5011460;28;20022;-68
2021/01/16 07:35:19;;;;;;;30.43;19.67;;;;;;;-0.26;75.21;100439.94;5011751;28;20029;-68
2021/01/16 07:37:46;;;;;;;27.07;20.40;;;;;;;-0.21;75.17;100443.72;5011685;28;20034;-68
2021/01/16 07:40:25;;;;;;;31.07;17.30;;;;;;;-0.54;74.37;100369.25;5011414;28;20037;-68
2021/01/16 07:42:53;;;;;;;25.30;15.75;;;;;;;-0.03;73.61;100454.44;5011688;28;20369;-68
2021/01/16 07:45:31;;;;;;;49.07;31.73;;;;;;;0.01;74.29;100454.69;5011227;28;20436;-68
2021/01/16 07:48:04;;;;;;;110.50;62.83;;;;;;;-0.09;74.44;100445.47;5011403;28;20427;-68
2021/01/16 07:50:32;;;;;;;36.33;21.77;;;;;;;-0.05;74.28;100455.09;5011401;28;20030;-68
2021/01/16 07:53:03;;;;;;;27.83;19.23;;;;;;;-0.02;73.98;100450.25;5011604;28;20030;-68
2021/01/16 07:55:34;;;;;;;24.37;16.63;;;;;;;0.02;74.20;100448.84;5011696;28;20105;-68
2021/01/16 07:58:19;;;;;;;25.93;16.37;;;;;;;0.06;73.75;100448.31;5011444;28;20452;-68
2021/01/16 08:00:59;;;;;;;306.83;151.43;;;;;;;0.06;74.01;100440.72;4982220;28;20054;-68
2021/01/16 08:03:41;;;;;;;64.97;42.93;;;;;;;0.02;74.79;100442.13;5011616;28;20026;-68
2021/01/16 08:06:25;;;;;;;38.30;24.37;;;;;;;-0.42;75.73;100447.09;5011322;28;20030;-68
2021/01/16 08:09:19;;;;;;;38.63;24.33;;;;;;;-0.33;76.25;100456.31;5011511;28;20041;-68
2021/01/16 08:11:52;;;;;;;28.90;17.83;;;;;;;-0.26;76.27;100465.31;5011458;28;20025;-67
2021/01/16 08:14:21;;;;;;;89.60;48.80;;;;;;;-0.04;75.28;100473.00;4976637;28;20046;-67
2021/01/16 08:16:56;;;;;;;37.38;23.08;;;;;;;-0.19;75.67;100475.19;5011441;28;20041;-68
2021/01/16 08:19:45;;;;;;;45.37;24.93;;;;;;;-0.21;76.62;100479.25;5011099;28;20038;-68
2021/01/16 08:22:15;;;;;;;54.72;32.85;;;;;;;-0.21;76.58;100486.00;4931227;29;20133;-68
2021/01/16 08:24:56;;;;;;;33.80;20.93;;;;;;;-0.26;77.08;100483.06;4931229;29;20517;-68
2021/01/16 08:27:24;;;;;;;37.47;21.17;;;;;;;-0.25;77.80;100481.41;4931561;29;20521;-68
2021/01/16 08:29:51;;;;;;;35.97;22.53;;;;;;;-0.28;77.99;100483.72;4931571;29;20035;-68
2021/01/16 08:32:17;;;;;;;32.47;21.77;;;;;;;-0.24;78.26;100479.00;4931323;29;20063;-68
2021/01/16 08:34:52;;;;;;;36.20;21.97;;;;;;;-0.13;77.54;100478.97;4931445;29;20065;-68
2021/01/16 08:37:39;;;;;;;35.20;21.67;;;;;;;-0.08;77.79;100470.09;4931088;29;20454;-68
2021/01/16 08:40:07;;;;;;;40.03;21.50;;;;;;;-0.04;76.79;100428.94;4934160;29;20117;-68
2021/01/16 08:42:34;;;;;;;35.60;21.10;;;;;;;0.07;76.86;100468.75;4934822;29;20035;-68
2021/01/16 08:45:02;;;;;;;31.70;19.90;;;;;;;0.18;75.37;100456.91;4934608;29;20157;-68
2021/01/16 08:47:28;;;;;;;35.77;19.80;;;;;;;0.38;74.91;100458.44;4934810;29;20637;-68
2021/01/16 08:50:12;;;;;;;29.40;18.17;;;;;;;0.45;74.56;100460.69;4934652;29;20115;-68
2021/01/16 08:52:37;;;;;;;31.27;18.90;;;;;;;0.22;74.58;100412.31;4934565;29;20102;-68
2021/01/16 08:55:05;;;;;;;29.43;19.83;;;;;;;0.40;74.75;100449.31;4934845;29;20043;-67
2021/01/16 08:57:35;;;;;;;27.03;16.60;;;;;;;0.47;74.27;100438.84;4937806;29;20035;-68
2021/01/16 09:00:24;;;;;;;31.70;19.77;;;;;;;0.41;72.95;100433.28;5002871;28;20053;-68
2021/01/16 09:03:13;;;;;;;24.10;14.13;;;;;;;0.21;74.19;100401.25;5014417;28;20030;-68
2021/01/16 09:05:40;;;;;;;64.65;27.30;;;;;;;0.52;72.83;100430.69;5014552;28;20024;-70
2021/01/16 09:08:27;;;;;;;25.03;16.43;;;;;;;0.57;71.87;100430.25;5021817;28;20025;-68
2021/01/16 09:10:54;;;;;;;28.93;17.90;;;;;;;0.44;71.80;100387.81;5026237;28;20105;-68
2021/01/16 09:13:30;;;;;;;23.67;15.67;;;;;;;0.65;71.58;100428.31;5034087;28;20416;-68
2021/01/16 09:15:58;;;;;;;27.03;16.63;;;;;;;0.57;71.88;100434.47;5034142;28;20034;-68
2021/01/16 09:18:24;;;;;;;26.23;17.63;;;;;;;0.57;71.92;100416.69;5033823;28;20487;-68
2021/01/16 09:20:52;;;;;;;23.80;16.53;;;;;;;0.73;70.36;100428.88;5033698;28;20058;-68
2021/01/16 09:23:36;;;;;;;23.90;15.17;;;;;;;0.83;70.93;100423.72;5033716;28;20037;-68
2021/01/16 09:26:04;;;;;;;25.20;14.83;;;;;;;0.90;70.79;100420.88;5034040;28;20061;-68
2021/01/16 09:28:51;;;;;;;21.77;13.40;;;;;;;0.96;69.77;100408.63;5033957;28;20035;-68
2021/01/16 09:31:23;;;;;;;20.90;14.10;;;;;;;0.88;69.78;100373.25;5033594;28;20439;-68
2021/01/16 09:34:13;;;;;;;24.80;16.17;;;;;;;1.16;69.54;100396.50;5033579;28;20060;-68
2021/01/16 09:36:42;;;;;;;19.57;13.20;;;;;;;1.23;68.34;100387.66;4952951;29;20468;-68
2021/01/16 09:39:19;;;;;;;19.48;12.32;;;;;;;1.06;67.10;100348.28;4952921;29;20409;-68
2021/01/16 09:41:47;;;;;;;18.23;12.63;;;;;;;0.84;67.86;100333.13;4952769;29;20036;-68
2021/01/16 09:44:14;;;;;;;18.17;12.10;;;;;;;1.20;68.67;100369.66;4953136;29;20039;-68
2021/01/16 09:46:43;;;;;;;18.80;12.53;;;;;;;1.06;67.87;100345.72;4953050;29;20039;-68
2021/01/16 09:49:12;;;;;;;17.83;13.18;;;;;;;1.25;68.42;100363.22;4952730;28;20031;-68
2021/01/16 09:51:39;;;;;;;14.40;10.18;;;;;;;1.27;68.59;100354.94;4953000;29;20074;-67
2021/01/16 09:54:29;;;;;;;24.33;15.57;;;;;;;1.40;67.37;100354.16;4953548;29;20043;-69
2021/01/16 09:56:56;;;;;;;18.27;12.37;;;;;;;1.40;66.65;100349.06;4950936;29;20031;-68
2021/01/16 09:59:24;;;;;;;21.13;12.40;;;;;;;1.53;67.64;100355.03;4952713;29;20121;-68
2021/01/16 10:02:08;;;;;;;22.20;13.23;;;;;;;1.64;67.15;100349.03;4952680;29;20047;-68
2021/01/16 10:04:44;;;;;;;26.83;14.40;;;;;;;1.65;66.82;100345.72;4952547;29;20037;-68
2021/01/16 10:07:12;;;;;;;18.43;12.20;;;;;;;1.69;66.42;100347.69;4952495;29;20114;-69
2021/01/16 10:09:50;;;;;;;17.63;11.43;;;;;;;1.56;66.09;100319.63;4952397;29;20039;-68
2021/01/16 10:12:33;;;;;;;39.90;25.30;;;;;;;1.67;68.17;100346.72;4951928;29;20122;-65
2021/01/16 10:15:10;;;;;;;27.40;15.43;;;;;;;1.55;68.55;100333.13;5022511;28;20116;-68
2021/01/16 10:17:41;;;;;;;29.20;15.67;;;;;;;1.57;69.16;100351.91;5025516;28;20484;-68
2021/01/16 10:20:09;;;;;;;173.37;55.17;;;;;;;1.51;69.68;100339.66;5032666;28;20041;-69
2021/01/16 10:22:35;;;;;;;26.10;12.97;;;;;;;1.45;67.91;100334.13;5032959;28;20061;-68
2021/01/16 10:25:08;;;;;;;68.93;27.07;;;;;;;1.43;67.97;100326.41;5032299;28;20037;-68
2021/01/16 10:27:47;;;;;;;29.27;16.00;;;;;;;1.31;68.24;100328.06;5046700;28;20044;-68
2021/01/16 10:30:23;;;;;;;17.67;12.25;;;;;;;1.35;66.79;100319.88;5032405;28;20475;-68
2021/01/16 10:32:50;;;;;;;26.03;19.30;;;;;;;1.29;65.94;100317.75;5032143;28;20037;-68
2021/01/16 10:36:05;;;;;;;17.70;9.97;;;;;;;1.35;64.44;100299.53;5032380;28;20036;-68
2021/01/16 10:38:42;;;;;;;14.90;7.50;;;;;;;1.28;62.61;100300.75;4882086;29;20044;-68
2021/01/16 10:41:09;;;;;;;14.90;8.03;;;;;;;1.21;62.66;100280.75;4913647;29;20048;-68
2021/01/16 10:43:35;;;;;;;33.37;15.90;;;;;;;1.25;63.22;100292.88;4897686;29;20104;-68
2021/01/16 10:46:22;;;;;;;18.33;8.63;;;;;;;1.39;62.23;100281.16;4913656;29;20036;-68
2021/01/16 10:48:49;;;;;;;13.70;8.40;;;;;;;1.49;62.16;100285.22;4913351;29;20483;-68
2021/01/16 10:51:14;;;;;;;36.43;14.40;;;;;;;1.53;61.97;100269.38;4913555;29;20040;-68
2021/01/16 10:53:41;;;;;;;15.87;8.17;;;;;;;1.57;62.55;100270.50;4913431;29;20127;-68
2021/01/16 10:56:12;;;;;;;58.53;19.27;;;;;;;1.54;61.49;100268.63;4913345;29;20547;-68
2021/01/16 10:58:39;;;;;;;21.47;9.90;;;;;;;1.47;61.53;100232.47;4913517;29;20499;-68
2021/01/16 11:01:04;;;;;;;41.90;24.30;;;;;;;1.59;61.48;100253.69;4912966;29;20040;-68
2021/01/16 11:03:32;;;;;;;13.33;7.90;;;;;;;1.46;62.95;100218.88;4913275;29;20439;-67
2021/01/16 11:06:06;;;;;;;15.37;9.93;;;;;;;1.52;62.83;100219.31;4905973;29;20045;-68
2021/01/16 11:08:34;;;;;;;13.67;7.70;;;;;;;1.79;62.73;100249.97;4898383;29;20509;-67
2021/01/16 11:11:01;;;;;;;11.97;6.93;;;;;;;1.47;62.85;100253.72;4932071;29;20043;-66
2021/01/16 11:13:30;;;;;;;15.43;9.97;;;;;;;1.38;64.57;100203.06;4935066;28;20039;-70
2021/01/16 11:16:16;;;;;;;24.23;11.98;;;;;;;1.60;64.24;100240.19;5020935;28;20036;-67
2021/01/16 11:18:43;;;;;;;19.17;10.07;;;;;;;1.58;64.53;100231.56;5031445;28;20037;-67
2021/01/16 11:21:11;;;;;;;14.33;8.70;;;;;;;1.38;65.13;100228.50;5029845;28;20095;-68
2021/01/16 11:23:45;;;;;;;15.70;8.90;;;;;;;1.50;65.14;100225.06;5031545;28;20036;-68
2021/01/16 11:26:16;;;;;;;19.27;12.43;;;;;;;1.67;67.44;100214.38;5031565;28;20029;-68
2021/01/16 11:28:52;;;;;;;13.63;9.47;;;;;;;1.72;65.06;100200.31;5031596;28;20033;-68